Time;durP1;ratioP1;P1;durP2;ratioP2;P2;SDS_P1;SDS_P2;PMS_P1;PMS_P2;Temp;Humidity;BMP_temperature;BMP_pressure;BME280_temperature;BME280_humidity;BME280_pressure;Samples;Min_cycle;Max_cycle;Signal;HPM_P1;HPM_P2
2022/10/19 00:02:11;;;;;;;19.05;11.57;;;;;;;17.99;56.99;98706.41;5299858;27;20400;-81
2022/10/19 00:04:38;;;;;;;20.62;11.02;;;;;;;18.13;57.25;98706.37;5299761;27;20323;-81
2022/10/19 00:07:05;;;;;;;19.30;10.55;;;;;;;18.04;56.83;98699.09;5280222;27;20079;-81
2022/10/19 00:09:32;;;;;;;19.87;10.73;;;;;;;18.34;55.91;98703.34;5300013;27;20068;-81
2022/10/19 00:11:59;;;;;;;21.42;10.63;;;;;;;18.81;54.85;98695.03;5299944;27;20049;-81
2022/10/19 00:14:26;;;;;;;18.02;10.20;;;;;;;19.20;53.23;98702.00;5299472;27;20399;-81
2022/10/19 00:16:54;;;;;;;20.10;10.23;;;;;;;18.70;53.71;98697.53;5300000;27;20072;-81
2022/10/19 00:19:24;;;;;;;19.77;11.50;;;;;;;18.82;53.22;98694.12;5300143;27;20068;-81
2022/10/19 00:21:51;;;;;;;18.95;10.07;;;;;;;18.09;55.10;98697.06;5299673;27;20067;-82
2022/10/19 00:24:18;;;;;;;18.08;10.95;;;;;;;18.95;53.41;98696.75;5299681;27;20056;-81
2022/10/19 00:26:45;;;;;;;21.77;11.88;;;;;;;18.60;53.75;98689.41;5299540;27;20110;-82
2022/10/19 00:29:13;;;;;;;20.52;12.80;;;;;;;19.22;54.31;98697.50;5299687;27;20060;-81
2022/10/19 00:31:40;;;;;;;20.70;12.23;;;;;;;19.28;56.13;98691.88;5299933;27;20096;-81
2022/10/19 00:34:07;;;;;;;21.80;12.88;;;;;;;18.59;59.61;98700.81;5299572;27;20386;-81
2022/10/19 00:36:37;;;;;;;23.70;13.48;;;;;;;18.60;60.49;98689.41;5280469;27;20487;-81
2022/10/19 00:39:07;;;;;;;26.23;13.02;;;;;;;19.15;59.03;98691.03;5280385;27;20082;-80
2022/10/19 00:41:35;;;;;;;23.67;13.68;;;;;;;19.00;60.45;98679.81;5299588;27;20317;-81
2022/10/19 00:44:06;;;;;;;25.10;13.95;;;;;;;18.57;62.60;98689.63;5299759;27;20040;-81
2022/10/19 00:46:36;;;;;;;24.00;13.85;;;;;;;18.62;63.18;98677.09;5299964;27;20072;-80
2022/10/19 00:49:18;;;;;;;24.55;14.93;;;;;;;18.61;63.53;98670.19;5280166;27;20076;-81
2022/10/19 00:51:51;;;;;;;23.05;13.48;;;;;;;18.53;63.65;98669.03;5299778;27;20048;-81
2022/10/19 00:54:18;;;;;;;20.95;12.32;;;;;;;18.81;63.77;98674.13;5280373;27;20046;-80
2022/10/19 00:56:47;;;;;;;25.17;13.35;;;;;;;19.61;60.51;98659.13;5280131;27;20397;-81
2022/10/19 00:59:15;;;;;;;23.08;12.85;;;;;;;18.69;63.73;98652.25;5299900;27;20057;-81
2022/10/19 01:01:44;;;;;;;25.65;13.43;;;;;;;19.32;61.75;98655.84;5280616;27;20088;-81
2022/10/19 01:04:12;;;;;;;22.50;13.65;;;;;;;18.69;64.69;98656.62;5299513;27;20056;-81
2022/10/19 01:06:40;;;;;;;22.55;12.98;;;;;;;19.61;61.07;98649.47;5280188;27;20065;-81
2022/10/19 01:09:07;;;;;;;21.20;11.57;;;;;;;19.20;63.11;98652.31;5299561;27;20080;-81
2022/10/19 01:11:51;;;;;;;23.52;11.40;;;;;;;19.71;61.06;98644.44;5299742;27;20048;-81
2022/10/19 01:14:50;;;;;;;20.25;11.30;;;;;;;19.32;63.07;98645.41;5280344;27;20049;-81
2022/10/19 01:17:45;;;;;;;19.15;9.70;;;;;;;18.36;67.53;98633.53;5299245;27;20468;-81
2022/10/19 01:20:37;;;;;;;18.87;9.50;;;;;;;18.75;67.30;98623.09;5280624;27;20072;-81
2022/10/19 01:23:26;;;;;;;17.48;9.70;;;;;;;18.47;69.84;98628.44;5299467;27;20060;-81
2022/10/19 01:26:11;;;;;;;17.48;8.73;;;;;;;18.35;71.64;98624.84;5299400;27;20046;-81
2022/10/19 01:29:06;;;;;;;18.87;10.35;;;;;;;17.17;77.74;98626.19;5299424;27;20068;-81
2022/10/19 01:31:38;;;;;;;22.73;10.63;;;;;;;17.22;78.77;98626.72;5299413;27;20062;-81
2022/10/19 01:34:14;;;;;;;19.75;10.48;;;;;;;16.86;81.39;98619.34;5299640;27;20049;-80
2022/10/19 01:37:32;;;;;;;19.92;9.98;;;;;;;16.96;82.37;98617.88;5280328;27;20395;-81
2022/10/19 01:40:13;;;;;;;19.50;9.77;;;;;;;16.65;84.92;98618.81;5299489;27;20336;-81
2022/10/19 01:43:16;;;;;;;18.75;10.48;;;;;;;17.30;82.20;98624.50;5299762;27;20082;-81
2022/10/19 01:45:53;;;;;;;21.10;10.52;;;;;;;17.01;83.41;98625.41;5287872;27;20093;-80
2022/10/19 01:48:21;;;;;;;;;;;;;;;17.95;79.28;98623.97;5300025;27;20582;-81
2022/10/19 01:51:09;;;;;;;21.83;9.82;;;;;;;17.17;83.41;98625.34;5299839;27;19979;-81
2022/10/19 01:53:42;;;;;;;23.52;10.77;;;;;;;17.27;82.47;98621.25;5299734;27;20060;-80
2022/10/19 01:56:10;;;;;;;19.50;9.75;;;;;;;17.37;82.30;98614.53;5299357;27;20071;-81
2022/10/19 01:58:38;;;;;;;19.70;9.95;;;;;;;17.24;83.27;98617.06;5261880;27;20064;-81
2022/10/19 02:01:07;;;;;;;20.77;10.35;;;;;;;17.44;82.76;98621.06;5299591;27;20313;-81
2022/10/19 02:03:34;;;;;;;22.15;10.25;;;;;;;17.33;84.08;98620.84;5280176;27;20090;-81
2022/10/19 02:06:06;;;;;;;24.40;12.30;;;;;;;17.18;84.81;98619.19;5279476;27;20052;-81
2022/10/19 02:08:46;;;;;;;25.75;12.80;;;;;;;17.37;84.70;98626.75;5280197;27;20075;-81
2022/10/19 02:11:13;;;;;;;22.50;11.80;;;;;;;16.95;87.48;98613.59;5262272;27;20313;-81
2022/10/19 02:13:41;;;;;;;25.25;11.48;;;;;;;16.65;90.65;98603.16;5279991;27;20064;-81
2022/10/19 02:16:12;;;;;;;27.83;13.90;;;;;;;16.61;91.82;98613.87;5279870;27;20049;-81
2022/10/19 02:18:44;;;;;;;25.83;12.70;;;;;;;16.48;92.94;98621.53;5279958;27;20321;-81
2022/10/19 02:21:11;;;;;;;27.20;12.65;;;;;;;16.28;94.40;98614.06;5279966;27;20072;-81
2022/10/19 02:23:38;;;;;;;25.88;12.98;;;;;;;16.67;93.38;98616.94;5299415;27;20054;-81
2022/10/19 02:26:05;;;;;;;27.48;14.80;;;;;;;16.66;92.66;98607.44;5298847;27;20099;-81
2022/10/19 02:28:32;;;;;;;30.08;15.82;;;;;;;16.28;94.41;98604.47;5299147;27;20045;-80
2022/10/19 02:30:59;;;;;;;35.33;15.65;;;;;;;16.65;92.90;98613.59;5299414;27;20053;-80
2022/10/19 02:33:27;;;;;;;24.80;11.38;;;;;;;16.82;92.29;98622.25;5299240;27;20435;-81
2022/10/19 02:35:56;;;;;;;32.40;15.82;;;;;;;17.08;90.47;98615.47;5279790;27;20737;-80
2022/10/19 02:38:23;;;;;;;29.55;14.80;;;;;;;16.91;91.47;98624.31;5279911;27;20056;-81
2022/10/19 02:41:07;;;;;;;30.55;14.77;;;;;;;16.44;93.86;98613.06;5299098;27;20103;-81
2022/10/19 02:43:37;;;;;;;33.28;15.65;;;;;;;16.55;94.11;98614.22;5299265;27;20061;-80
2022/10/19 02:46:15;;;;;;;29.80;15.25;;;;;;;16.92;91.30;98613.78;5279519;27;20114;-80
2022/10/19 02:48:42;;;;;;;34.20;16.20;;;;;;;16.80;92.05;98621.47;5299003;27;20053;-80
2022/10/19 02:51:36;;;;;;;33.28;16.35;;;;;;;16.90;91.93;98630.41;5279808;27;20065;-80
2022/10/19 02:54:04;;;;;;;34.58;16.70;;;;;;;16.29;95.67;98618.34;5299044;27;20068;-80
2022/10/19 02:56:32;;;;;;;38.65;19.00;;;;;;;16.39;95.79;98615.13;5299131;27;20048;-80
2022/10/19 02:58:59;;;;;;;40.10;19.08;;;;;;;16.74;94.17;98630.50;5279737;27;20045;-81
2022/10/19 03:01:26;;;;;;;44.03;21.95;;;;;;;16.73;93.44;98631.44;5298849;27;20057;-81
2022/10/19 03:03:53;;;;;;;39.90;20.27;;;;;;;15.77;99.24;98629.87;5299260;27;20068;-80
2022/10/19 03:06:20;;;;;;;41.75;20.62;;;;;;;16.37;97.11;98629.97;5298859;27;20079;-81
2022/10/19 03:08:47;;;;;;;44.65;21.30;;;;;;;16.14;96.63;98635.63;5299106;27;20049;-80
2022/10/19 03:11:14;;;;;;;45.83;20.40;;;;;;;15.81;100.00;98644.37;5299062;27;20068;-80
2022/10/19 03:13:42;;;;;;;46.45;20.27;;;;;;;16.23;97.01;98622.09;5299141;27;20061;-81
2022/10/19 03:16:12;;;;;;;43.40;17.42;;;;;;;16.27;97.26;98641.84;5298763;27;20060;-80
2022/10/19 03:18:39;;;;;;;46.50;23.48;;;;;;;16.56;95.44;98642.78;5299104;27;20061;-80
2022/10/19 03:21:09;;;;;;;46.50;22.23;;;;;;;16.50;95.93;98630.13;5279665;27;20065;-80
2022/10/19 03:23:36;;;;;;;48.13;23.58;;;;;;;16.41;95.62;98633.25;5298710;27;20396;-81
2022/10/19 03:26:04;;;;;;;45.58;23.30;;;;;;;16.60;94.39;98630.44;5298553;27;20429;-80
2022/10/19 03:28:36;;;;;;;38.67;16.02;;;;;;;16.26;95.46;98631.50;5299050;27;20065;-80
2022/10/19 03:31:03;;;;;;;45.38;21.65;;;;;;;16.53;95.17;98636.91;5299884;27;20058;-81
2022/10/19 03:33:30;;;;;;;48.80;23.02;;;;;;;16.55;94.07;98642.88;5300252;27;20088;-81
2022/10/19 03:36:17;;;;;;;47.88;21.65;;;;;;;16.52;94.58;98656.09;5299943;27;20057;-80
2022/10/19 03:38:44;;;;;;;47.15;19.62;;;;;;;16.65;94.16;98646.63;5280629;27;20052;-80
2022/10/19 03:41:11;;;;;;;45.83;21.17;;;;;;;16.28;96.09;98651.34;5280776;27;20064;-81
2022/10/19 03:43:40;;;;;;;45.95;22.17;;;;;;;16.13;96.37;98670.41;5280582;27;20324;-81
2022/10/19 03:46:07;;;;;;;49.22;22.85;;;;;;;16.14;97.16;98669.47;5299716;27;20067;-81
2022/10/19 03:48:34;;;;;;;50.15;23.33;;;;;;;16.43;94.90;98665.25;5280640;27;20062;-80
2022/10/19 03:51:07;;;;;;;48.78;23.23;;;;;;;16.50;94.04;98669.19;5280285;27;20065;-81
2022/10/19 03:53:34;;;;;;;45.25;21.52;;;;;;;17.08;91.57;98672.81;5280589;27;20422;-81
2022/10/19 03:56:06;;;;;;;52.10;22.77;;;;;;;16.32;95.43;98663.25;5299789;27;20072;-81
2022/10/19 03:58:34;;;;;;;48.55;23.23;;;;;;;16.48;95.12;98656.25;5280573;27;20061;-80
2022/10/19 04:01:06;;;;;;;53.60;25.08;;;;;;;16.62;93.68;98667.66;5262787;26;20383;-81
2022/10/19 04:03:33;;;;;;;50.38;24.30;;;;;;;16.33;95.64;98667.53;5300090;27;20067;-80
2022/10/19 04:06:06;;;;;;;55.45;25.12;;;;;;;16.93;92.86;98670.19;5299430;27;20049;-81
2022/10/19 04:08:33;;;;;;;43.05;21.15;;;;;;;16.66;94.77;98674.34;5300010;27;20045;-80
2022/10/19 04:11:02;;;;;;;52.10;24.85;;;;;;;16.94;92.14;98668.41;5299978;27;20053;-80
2022/10/19 04:13:29;;;;;;;50.15;23.95;;;;;;;16.74;92.37;98673.03;5280262;27;20072;-81
2022/10/19 04:15:56;;;;;;;51.37;24.25;;;;;;;17.31;89.34;98674.87;5262338;27;20065;-80
2022/10/19 04:18:23;;;;;;;51.33;23.70;;;;;;;17.67;88.46;98679.66;5299752;27;20396;-81
2022/10/19 04:21:01;;;;;;;47.58;22.35;;;;;;;17.67;88.29;98676.22;5299982;27;20061;-80
2022/10/19 04:23:30;;;;;;;44.10;23.70;;;;;;;17.66;87.20;98684.97;5299973;27;20057;-80
2022/10/19 04:26:06;;;;;;;43.83;22.62;;;;;;;18.37;84.26;98674.37;5299434;27;20049;-81
2022/10/19 04:28:33;;;;;;;47.15;24.12;;;;;;;18.20;84.57;98683.31;5299534;27;20403;-80
2022/10/19 04:31:04;;;;;;;42.83;18.95;;;;;;;17.14;90.20;98688.94;5280172;27;20424;-80
2022/10/19 04:33:32;;;;;;;44.60;20.90;;;;;;;16.51;93.61;98690.87;5299725;27;20407;-81
2022/10/19 04:36:00;;;;;;;52.92;22.90;;;;;;;16.64;94.67;98684.88;5280340;27;20579;-80
2022/10/19 04:38:28;;;;;;;47.00;23.77;;;;;;;17.12;91.25;98695.16;5299829;27;20109;-80
2022/10/19 04:40:55;;;;;;;45.67;22.77;;;;;;;17.38;90.07;98697.06;5299529;27;20556;-80
2022/10/19 04:43:22;;;;;;;44.53;23.38;;;;;;;17.38;88.86;98704.06;5280439;27;20060;-81
2022/10/19 04:45:49;;;;;;;44.67;22.50;;;;;;;16.88;92.21;98706.09;5299542;27;20049;-80
2022/10/19 04:48:15;;;;;;;44.53;23.00;;;;;;;17.28;89.85;98698.56;5299627;27;20059;-81
2022/10/19 04:50:42;;;;;;;45.60;22.98;;;;;;;17.34;88.94;98692.97;5299854;27;20058;-81
2022/10/19 04:53:09;;;;;;;43.90;22.40;;;;;;;17.59;87.92;98702.75;5299796;27;20387;-80
2022/10/19 04:55:40;;;;;;;36.92;18.37;;;;;;;18.03;85.04;98700.03;5299469;27;20057;-80
2022/10/19 04:58:08;;;;;;;39.85;20.08;;;;;;;18.23;83.73;98695.34;5299781;27;20060;-81
2022/10/19 05:00:37;;;;;;;41.05;19.55;;;;;;;17.83;85.44;98700.44;5299638;27;20079;-81
2022/10/19 05:03:04;;;;;;;37.25;20.05;;;;;;;17.74;85.93;98696.63;5280423;27;20061;-81
2022/10/19 05:05:31;;;;;;;37.65;18.70;;;;;;;16.93;89.59;98701.47;5299351;27;20061;-80
2022/10/19 05:07:58;;;;;;;36.97;18.15;;;;;;;17.35;86.85;98694.66;5299477;27;20094;-81
2022/10/19 05:10:25;;;;;;;30.75;16.10;;;;;;;16.67;89.63;98684.69;5299811;27;20065;-81
2022/10/19 05:12:52;;;;;;;34.05;17.48;;;;;;;17.22;87.08;98691.06;5299764;27;20065;-81
2022/10/19 05:15:19;;;;;;;34.80;17.15;;;;;;;17.00;87.58;98689.75;5280047;27;20064;-81
2022/10/19 05:17:46;;;;;;;34.55;16.83;;;;;;;17.54;84.98;98691.75;5299746;27;20059;-81
2022/10/19 05:20:13;;;;;;;30.02;16.17;;;;;;;17.08;85.78;98694.50;5299846;27;20061;-81
2022/10/19 05:22:40;;;;;;;28.48;14.23;;;;;;;16.88;86.10;98687.00;5299728;27;20522;-81
2022/10/19 05:25:07;;;;;;;31.40;14.23;;;;;;;17.34;82.87;98690.37;5280201;27;20385;-81
2022/10/19 05:27:34;;;;;;;30.77;15.63;;;;;;;17.27;82.99;98696.88;5299649;27;20078;-80
2022/10/19 05:30:01;;;;;;;29.10;15.52;;;;;;;17.85;80.30;98702.03;5299455;27;20126;-81
2022/10/19 05:32:28;;;;;;;28.00;15.30;;;;;;;17.29;82.37;98697.63;5299367;27;20075;-80
2022/10/19 05:34:55;;;;;;;26.80;14.77;;;;;;;17.63;80.71;98702.47;5280130;27;20368;-80
2022/10/19 05:37:22;;;;;;;26.37;14.05;;;;;;;18.33;76.73;98701.66;5299450;27;20049;-81
2022/10/19 05:39:48;;;;;;;26.20;14.35;;;;;;;19.00;74.70;98705.13;5299663;27;20053;-80
2022/10/19 05:42:15;;;;;;;25.30;13.65;;;;;;;17.86;78.49;98713.28;5299656;27;20057;-81
2022/10/19 05:44:42;;;;;;;23.15;12.45;;;;;;;17.44;80.16;98714.97;5299274;27;20068;-80
2022/10/19 05:47:09;;;;;;;23.00;12.63;;;;;;;17.46;80.01;98720.94;5299491;27;20453;-80
2022/10/19 05:49:36;;;;;;;20.02;11.82;;;;;;;17.28;80.58;98725.47;5299323;27;20073;-81
2022/10/19 05:52:03;;;;;;;21.42;11.02;;;;;;;17.04;81.35;98722.53;5299072;27;20058;-81
2022/10/19 05:54:30;;;;;;;18.98;9.98;;;;;;;16.27;83.33;98719.97;5299380;27;20054;-80
2022/10/19 05:56:57;;;;;;;19.17;9.48;;;;;;;17.17;81.03;98721.81;5299116;27;20063;-81
2022/10/19 05:59:24;;;;;;;19.33;8.70;;;;;;;17.14;80.64;98735.03;5298749;27;20053;-81
2022/10/19 06:01:51;;;;;;;19.85;10.02;;;;;;;16.79;82.21;98724.88;5299160;27;20110;-81
2022/10/19 06:04:18;;;;;;;21.15;9.95;;;;;;;16.99;81.42;98721.94;5298846;27;20140;-81
2022/10/19 06:06:44;;;;;;;16.12;8.02;;;;;;;17.19;81.19;98728.63;5298933;27;20082;-81
2022/10/19 06:09:11;;;;;;;17.67;8.18;;;;;;;16.82;81.63;98729.09;5298678;27;20056;-81
2022/10/19 06:11:40;;;;;;;16.20;8.30;;;;;;;17.35;79.71;98718.97;5299245;27;20061;-82
2022/10/19 06:14:11;;;;;;;17.45;9.45;;;;;;;17.08;80.08;98715.38;5298605;27;20066;-84
2022/10/19 06:16:38;;;;;;;16.90;8.80;;;;;;;16.76;82.00;98719.84;5299539;27;20041;-79
2022/10/19 06:19:05;;;;;;;17.30;8.48;;;;;;;17.40;79.25;98718.69;5298899;27;20128;-79
2022/10/19 06:21:32;;;;;;;14.30;7.95;;;;;;;17.36;78.51;98717.19;5299510;27;20057;-79
2022/10/19 06:24:01;;;;;;;15.80;7.87;;;;;;;17.33;78.70;98730.41;5279952;27;20068;-79
2022/10/19 06:26:29;;;;;;;16.10;7.07;;;;;;;17.92;75.41;98736.44;5298981;27;20045;-78
2022/10/19 06:28:59;;;;;;;13.65;6.90;;;;;;;18.02;74.68;98732.31;5299299;27;20052;-78
2022/10/19 06:31:31;;;;;;;16.55;6.70;;;;;;;18.49;72.80;98733.69;5299008;27;20057;-78
2022/10/19 06:33:58;;;;;;;14.45;7.25;;;;;;;18.87;70.86;98733.03;5299413;27;20064;-78
2022/10/19 06:36:28;;;;;;;12.55;6.15;;;;;;;18.75;70.81;98734.66;5299395;27;20387;-78
2022/10/19 06:38:55;;;;;;;13.48;6.82;;;;;;;19.27;69.49;98739.06;5298897;27;20071;-78
2022/10/19 06:41:22;;;;;;;13.40;6.25;;;;;;;19.85;66.87;98742.97;5299382;27;20472;-78
2022/10/19 06:43:52;;;;;;;11.98;5.82;;;;;;;20.14;65.24;98746.16;5299154;27;20045;-78
2022/10/19 06:46:22;;;;;;;12.75;5.87;;;;;;;19.96;65.74;98747.44;5298714;27;20074;-78
2022/10/19 06:48:54;;;;;;;11.05;5.45;;;;;;;20.12;65.37;98742.81;5299255;27;20477;-80
2022/10/19 06:51:21;;;;;;;11.88;5.35;;;;;;;20.69;63.04;98736.97;5299448;27;20072;-81
2022/10/19 06:53:48;;;;;;;11.45;5.35;;;;;;;20.42;62.92;98743.28;5298771;27;20049;-81
2022/10/19 06:56:23;;;;;;;12.82;4.43;;;;;;;20.69;62.07;98756.16;5299674;27;20044;-82
2022/10/19 06:58:50;;;;;;;10.65;4.80;;;;;;;21.42;58.04;98746.44;5298958;27;20069;-81
2022/10/19 07:01:17;;;;;;;12.30;5.22;;;;;;;20.32;61.94;98754.50;5298801;27;20113;-81
2022/10/19 07:03:45;;;;;;;11.82;5.07;;;;;;;20.24;61.63;98752.44;5298956;27;20392;-81
2022/10/19 07:06:13;;;;;;;10.82;4.57;;;;;;;20.95;59.63;98751.66;5297489;27;20463;-81
2022/10/19 07:08:41;;;;;;;10.80;4.60;;;;;;;19.86;62.51;98755.09;5298803;27;20061;-84
2022/10/19 07:11:11;;;;;;;8.23;3.90;;;;;;;19.88;63.63;98755.84;5278152;27;20061;-82
2022/10/19 07:13:38;;;;;;;8.32;3.55;;;;;;;19.48;64.37;98755.09;5278849;27;20076;-81
2022/10/19 07:16:07;;;;;;;8.38;3.65;;;;;;;19.11;64.57;98765.41;5297056;27;20117;-79
2022/10/19 07:18:35;;;;;;;8.35;3.17;;;;;;;19.94;63.04;98769.34;5298535;27;20061;-79
2022/10/19 07:21:05;;;;;;;8.27;3.35;;;;;;;20.00;61.51;98762.88;5298539;27;20057;-80
2022/10/19 07:23:33;;;;;;;8.73;3.97;;;;;;;19.41;63.24;98762.53;5298903;27;20054;-80
2022/10/19 07:26:12;;;;;;;8.20;3.42;;;;;;;20.73;59.95;98769.88;5297324;27;20145;-80
2022/10/19 07:28:41;;;;;;;8.15;3.17;;;;;;;20.64;59.45;98786.31;5299177;27;20109;-80
2022/10/19 07:31:10;;;;;;;8.65;3.42;;;;;;;19.96;60.69;98777.09;5299361;27;20053;-79
2022/10/19 07:33:37;;;;;;;10.05;4.30;;;;;;;18.79;64.95;98785.81;5296765;27;20517;-80
2022/10/19 07:36:07;;;;;;;6.45;2.90;;;;;;;19.18;64.57;98782.37;5297916;27;20071;-80
2022/10/19 07:38:34;;;;;;;8.95;3.75;;;;;;;19.84;62.02;98789.25;5298739;27;20497;-79
2022/10/19 07:41:04;;;;;;;8.70;3.28;;;;;;;18.77;65.71;98785.06;5279576;27;20328;-80
2022/10/19 07:43:31;;;;;;;7.00;2.85;;;;;;;19.89;62.60;98786.34;5298900;27;20053;-80
2022/10/19 07:46:09;;;;;;;15.13;3.47;;;;;;;20.43;60.02;98783.44;5297326;27;20336;-79
2022/10/19 07:48:36;;;;;;;13.95;2.75;;;;;;;20.09;60.21;98777.06;5298986;27;20061;-80
2022/10/19 07:51:05;;;;;;;7.62;2.85;;;;;;;20.31;59.80;98771.16;5298940;27;20048;-80
2022/10/19 07:53:33;;;;;;;7.68;2.85;;;;;;;20.60;58.33;98783.06;5298926;27;20371;-79
2022/10/19 07:56:08;;;;;;;7.68;2.92;;;;;;;20.73;57.43;98781.22;5298180;27;20478;-79
2022/10/19 07:58:36;;;;;;;6.37;2.53;;;;;;;21.05;56.17;98780.63;5279609;27;20068;-80
2022/10/19 08:01:04;;;;;;;5.82;2.87;;;;;;;21.04;55.79;98787.69;5279575;27;20076;-80
2022/10/19 08:03:33;;;;;;;6.03;2.30;;;;;;;21.34;54.75;98771.47;5298697;27;20057;-80
2022/10/19 08:06:21;;;;;;;7.00;2.10;;;;;;;21.11;55.22;98776.75;5281243;27;20053;-79
2022/10/19 08:08:48;;;;;;;5.35;2.15;;;;;;;20.84;56.13;98774.34;5278987;27;20068;-79
2022/10/19 08:11:21;;;;;;;4.55;2.35;;;;;;;19.82;57.89;98780.69;5279440;27;20061;-79
2022/10/19 08:13:48;;;;;;;6.43;2.17;;;;;;;20.47;55.23;98780.47;5299159;27;20053;-80
2022/10/19 08:16:36;;;;;;;5.85;2.12;;;;;;;20.06;56.24;98786.00;5297210;27;20406;-80
2022/10/19 08:19:13;;;;;;;3.92;1.55;;;;;;;20.33;56.30;98791.09;5298571;27;20057;-80
2022/10/19 08:21:43;;;;;;;3.55;1.40;;;;;;;19.83;56.22;98787.59;5299752;27;20084;-80
2022/10/19 08:24:12;;;;;;;4.87;1.55;;;;;;;19.44;58.22;98774.56;5298598;27;20408;-80
2022/10/19 08:26:40;;;;;;;5.45;1.48;;;;;;;18.86;59.95;98779.25;5297926;27;20075;-79
2022/10/19 08:29:11;;;;;;;5.60;1.62;;;;;;;19.39;58.00;98780.09;5299292;27;20061;-79
2022/10/19 08:31:39;;;;;;;4.20;1.77;;;;;;;19.73;55.94;98786.53;5298514;27;20114;-80
2022/10/19 08:34:20;;;;;;;2.75;1.33;;;;;;;20.13;54.98;98786.41;5299412;27;20410;-80
2022/10/19 08:36:50;;;;;;;7.45;1.33;;;;;;;20.11;54.40;98783.91;5279710;27;20049;-80
2022/10/19 08:39:17;;;;;;;3.53;1.52;;;;;;;20.09;54.06;98788.38;5278554;27;20057;-80
2022/10/19 08:42:03;;;;;;;3.45;1.55;;;;;;;20.04;55.21;98789.66;5299266;27;20323;-80
2022/10/19 08:44:45;;;;;;;3.00;1.40;;;;;;;20.11;53.73;98796.16;5293093;27;20066;-81
2022/10/19 08:47:36;;;;;;;20.35;2.17;;;;;;;20.68;52.75;98791.22;5306971;27;20088;-80
2022/10/19 08:50:25;;;;;;;8.57;1.65;;;;;;;20.99;50.51;98791.59;5298840;27;20053;-79
2022/10/19 08:53:05;;;;;;;4.75;1.70;;;;;;;19.74;53.65;98790.84;5298610;27;20072;-80
2022/10/19 08:55:54;;;;;;;7.60;1.55;;;;;;;20.92;51.11;98795.63;5298711;27;20057;-80
2022/10/19 08:58:35;;;;;;;2.60;1.30;;;;;;;20.50;52.62;98793.38;5299318;27;20049;-79
2022/10/19 09:01:09;;;;;;;3.87;1.80;;;;;;;19.63;55.37;98799.41;5299443;27;20061;-79
2022/10/19 09:03:59;;;;;;;9.18;1.55;;;;;;;20.89;51.68;98798.47;5298754;27;20360;-79
2022/10/19 09:06:56;;;;;;;3.40;1.35;;;;;;;21.98;48.27;98791.97;5297794;27;20075;-79
2022/10/19 09:09:23;;;;;;;4.18;1.20;;;;;;;22.28;45.87;98783.50;5299120;27;20359;-83
2022/10/19 09:12:02;;;;;;;1.55;1.00;;;;;;;22.17;43.34;98783.53;5280097;27;20057;-81
2022/10/19 09:14:44;;;;;;;3.90;1.17;;;;;;;21.29;45.35;98778.03;5299137;27;20065;-81
2022/10/19 09:17:15;;;;;;;3.12;1.30;;;;;;;20.42;48.16;98793.09;5298025;27;20057;-82
2022/10/19 09:19:42;;;;;;;7.43;1.40;;;;;;;20.84;46.71;98782.22;5298417;27;20052;-81
2022/10/19 09:22:26;;;;;;;3.05;0.90;;;;;;;20.36;48.00;98783.00;5298755;27;20122;-80
2022/10/19 09:25:07;;;;;;;2.33;1.10;;;;;;;20.54;45.13;98786.12;5279160;27;20066;-81
2022/10/19 09:27:39;;;;;;;2.00;1.23;;;;;;;20.74;44.86;98790.78;5297908;27;20057;-81
2022/10/19 09:30:21;;;;;;;3.22;0.95;;;;;;;21.12;45.39;98784.50;5298424;27;20394;-82
2022/10/19 09:32:54;;;;;;;3.95;1.00;;;;;;;21.15;45.07;98781.63;5279218;27;20061;-82
2022/10/19 09:35:38;;;;;;;6.15;1.73;;;;;;;21.92;42.80;98793.31;5278799;27;20496;-81
2022/10/19 09:38:06;;;;;;;1.25;0.85;;;;;;;21.34;44.19;98795.09;5279380;27;20068;-80
2022/10/19 09:40:35;;;;;;;2.33;1.20;;;;;;;21.44;44.38;98799.66;5299299;27;20049;-80
2022/10/19 09:43:18;;;;;;;2.60;1.20;;;;;;;20.18;47.78;98800.84;5298161;27;20061;-80
2022/10/19 09:46:14;;;;;;;19.50;1.90;;;;;;;20.61;46.63;98789.97;5297757;27;20060;-80
2022/10/19 09:48:50;;;;;;;3.70;1.12;;;;;;;20.93;46.21;98795.50;5297119;27;20060;-81
2022/10/19 09:51:19;;;;;;;2.45;1.00;;;;;;;20.38;47.60;98802.06;5277847;27;20071;-82
2022/10/19 09:53:52;;;;;;;2.05;0.70;;;;;;;19.96;47.75;98758.75;5296377;27;20081;-81
2022/10/19 09:56:28;;;;;;;2.50;1.20;;;;;;;20.17;46.96;98799.19;5296636;27;20427;-80
2022/10/19 09:58:57;;;;;;;1.67;0.88;;;;;;;21.18;43.85;98796.34;5296256;27;20068;-80
2022/10/19 10:01:35;;;;;;;3.70;0.98;;;;;;;21.51;42.61;98785.97;5297856;27;20060;-80
2022/10/19 10:04:13;;;;;;;3.28;0.93;;;;;;;20.76;43.56;98786.25;5297689;27;20154;-80
2022/10/19 10:06:42;;;;;;;1.83;0.95;;;;;;;21.58;43.05;98795.03;5277666;27;20057;-79
2022/10/19 10:09:24;;;;;;;2.22;0.85;;;;;;;20.69;45.57;98784.19;5298004;27;20053;-79
2022/10/19 10:11:53;;;;;;;3.40;1.15;;;;;;;20.48;46.06;98791.81;5298668;27;20056;-80
2022/10/19 10:14:43;;;;;;;2.03;0.90;;;;;;;20.53;46.03;98800.19;5280324;27;20087;-79
2022/10/19 10:17:20;;;;;;;1.77;1.15;;;;;;;21.34;44.92;98789.84;5297290;27;20102;-79
2022/10/19 10:20:03;;;;;;;2.53;1.20;;;;;;;21.39;45.31;98780.81;5298302;27;20433;-79
2022/10/19 10:22:34;;;;;;;3.15;1.15;;;;;;;22.10;43.62;98795.47;5279301;27;20068;-79
2022/10/19 10:25:11;;;;;;;2.87;1.20;;;;;;;20.76;44.45;98798.53;5297847;27;20065;-79
2022/10/19 10:27:40;;;;;;;1.80;1.20;;;;;;;20.59;45.12;98783.16;5278974;27;20061;-79
2022/10/19 10:30:18;;;;;;;2.42;1.15;;;;;;;19.32;48.23;98778.84;5297774;27;20128;-79
2022/10/19 10:32:55;;;;;;;3.03;1.08;;;;;;;19.10;50.61;98781.19;5279416;27;20045;-79
2022/10/19 10:35:54;;;;;;;2.85;1.17;;;;;;;19.12;50.20;98767.06;5297063;27;20058;-79
2022/10/19 10:38:39;;;;;;;3.17;1.45;;;;;;;20.30;48.22;98772.94;5278118;27;20124;-79
2022/10/19 10:41:16;;;;;;;3.33;1.20;;;;;;;20.37;48.38;98770.72;5299480;27;20132;-79
2022/10/19 10:43:57;;;;;;;2.33;1.27;;;;;;;20.78;46.42;98765.16;5299505;27;20054;-79
2022/10/19 10:46:49;;;;;;;1.73;1.15;;;;;;;20.97;46.80;98752.38;5279625;27;20075;-79
2022/10/19 10:49:26;;;;;;;10.20;1.60;;;;;;;20.77;46.76;98753.84;5299006;27;20065;-79
2022/10/19 10:52:15;;;;;;;1.40;0.90;;;;;;;20.70;47.54;98762.25;5298669;27;20045;-79
2022/10/19 10:54:59;;;;;;;3.95;1.30;;;;;;;21.24;44.82;98751.25;5299126;27;20053;-79
2022/10/19 10:57:30;;;;;;;4.95;1.40;;;;;;;20.95;45.96;98754.28;5298603;27;20061;-79
2022/10/19 11:00:06;;;;;;;8.07;2.08;;;;;;;21.37;45.82;98755.50;5299116;27;20106;-79
2022/10/19 11:03:11;;;;;;;3.37;1.23;;;;;;;20.56;46.19;98729.19;5299195;27;20053;-79
2022/10/19 11:05:45;;;;;;;4.50;1.48;;;;;;;20.50;47.39;98735.69;5298217;27;20422;-79
2022/10/19 11:09:08;;;;;;;3.75;1.60;;;;;;;20.41;47.67;98745.97;5279518;27;20061;-79
2022/10/19 11:11:44;;;;;;;4.25;1.92;;;;;;;20.04;48.80;98740.72;5293100;27;20058;-79
2022/10/19 11:14:46;;;;;;;7.82;2.53;;;;;;;20.19;49.07;98736.19;5279343;27;20321;-80
2022/10/19 11:17:20;;;;;;;6.25;2.00;;;;;;;20.48;48.73;98740.22;5298511;27;20060;-79
2022/10/19 11:19:50;;;;;;;4.32;1.85;;;;;;;20.51;48.72;98733.91;5279397;27;20068;-80
2022/10/19 11:22:47;;;;;;;4.95;2.20;;;;;;;21.02;47.68;98736.28;5299168;27;20068;-80
2022/10/19 11:25:31;;;;;;;5.07;2.00;;;;;;;21.28;47.31;98737.84;5279355;27;20117;-79
2022/10/19 11:28:16;;;;;;;7.05;1.80;;;;;;;21.62;47.14;98730.84;5279371;27;20098;-80
2022/10/19 11:30:56;;;;;;;3.92;1.85;;;;;;;20.67;48.67;98729.22;5299338;27;20415;-80
2022/10/19 11:33:33;;;;;;;6.37;2.00;;;;;;;20.74;49.39;98714.72;5278903;27;20113;-81
2022/10/19 11:36:27;;;;;;;5.62;2.30;;;;;;;21.05;49.19;98723.78;5298667;27;20416;-81
2022/10/19 11:39:29;;;;;;;12.18;2.92;;;;;;;20.22;50.88;98708.00;5299231;27;20057;-82
2022/10/19 11:42:14;;;;;;;4.68;2.08;;;;;;;21.20;49.23;98721.78;5279662;27;20061;-81
2022/10/19 11:44:53;;;;;;;4.65;2.22;;;;;;;22.44;46.31;98713.00;5279773;27;20053;-82
2022/10/19 11:47:41;;;;;;;6.18;2.40;;;;;;;21.62;46.97;98703.75;5298006;27;20362;-83
2022/10/19 11:50:23;;;;;;;5.57;2.20;;;;;;;21.78;46.35;98701.56;5298756;27;20057;-83
2022/10/19 11:52:59;;;;;;;5.62;2.12;;;;;;;20.65;48.74;98697.06;5298881;27;20105;-82